sensor_id;sensor_type;location;lat;lon;timestamp;temperature;humidity
70368;DHT22;57789;53.868;10.728;2024-02-23T00:00:51;10.70;99.90
70368;DHT22;57789;53.868;10.728;2024-02-23T00:03:17;10.70;99.90
70368;DHT22;57789;53.868;10.728;2024-02-23T00:05:42;10.60;99.90
70368;DHT22;57789;53.868;10.728;2024-02-23T00:08:08;10.60;99.90
70368;DHT22;57789;53.868;10.728;2024-02-23T00:10:37;10.60;99.90
70368;DHT22;57789;53.868;10.728;2024-02-23T00:13:03;10.60;99.90
70368;DHT22;57789;53.868;10.728;2024-02-23T00:15:29;10.50;99.90
70368;DHT22;57789;53.868;10.728;2024-02-23T00:17:55;10.40;99.90
70368;DHT22;57789;53.868;10.728;2024-02-23T00:20:21;10.40;99.90
70368;DHT22;57789;53.868;10.728;2024-02-23T00:22:47;10.40;99.90
70368;DHT22;57789;53.868;10.728;2024-02-23T00:25:12;10.30;99.90
70368;DHT22;57789;53.868;10.728;2024-02-23T00:27:38;10.20;99.90
70368;DHT22;57789;53.868;10.728;2024-02-23T00:30:07;10.10;99.90
70368;DHT22;57789;53.868;10.728;2024-02-23T00:32:33;10.10;99.90
70368;DHT22;57789;53.868;10.728;2024-02-23T00:34:58;10.10;99.90
70368;DHT22;57789;53.868;10.728;2024-02-23T00:37:24;10.10;99.90
70368;DHT22;57789;53.868;10.728;2024-02-23T00:39:50;10.10;99.90
70368;DHT22;57789;53.868;10.728;2024-02-23T00:42:16;10.10;99.90
70368;DHT22;57789;53.868;10.728;2024-02-23T00:44:41;10.10;99.90
70368;DHT22;57789;53.868;10.728;2024-02-23T00:47:07;10.10;99.90
70368;DHT22;57789;53.868;10.728;2024-02-23T00:49:33;10.00;99.90
70368;DHT22;57789;53.868;10.728;2024-02-23T00:51:59;10.00;99.90
70368;DHT22;57789;53.868;10.728;2024-02-23T00:54:24;10.00;99.90
70368;DHT22;57789;53.868;10.728;2024-02-23T00:56:50;10.00;99.90
70368;DHT22;57789;53.868;10.728;2024-02-23T00:59:16;9.90;99.90
70368;DHT22;57789;53.868;10.728;2024-02-23T01:01:42;9.80;99.90
70368;DHT22;57789;53.868;10.728;2024-02-23T01:04:08;9.80;99.90
70368;DHT22;57789;53.868;10.728;2024-02-23T01:06:33;9.70;99.90
70368;DHT22;57789;53.868;10.728;2024-02-23T01:08:59;9.70;99.90
70368;DHT22;57789;53.868;10.728;2024-02-23T01:11:25;9.70;99.90
70368;DHT22;57789;53.868;10.728;2024-02-23T01:13:51;9.70;99.90
70368;DHT22;57789;53.868;10.728;2024-02-23T01:16:16;9.70;99.90
70368;DHT22;57789;53.868;10.728;2024-02-23T01:18:42;9.60;99.90
70368;DHT22;57789;53.868;10.728;2024-02-23T01:21:08;9.60;99.90
70368;DHT22;57789;53.868;10.728;2024-02-23T01:23:34;9.60;99.90
70368;DHT22;57789;53.868;10.728;2024-02-23T01:25:59;9.50;99.90
70368;DHT22;57789;53.868;10.728;2024-02-23T01:28:25;8.80;99.90
70368;DHT22;57789;53.868;10.728;2024-02-23T01:30:51;8.10;99.90
70368;DHT22;57789;53.868;10.728;2024-02-23T01:33:17;7.70;99.90
70368;DHT22;57789;53.868;10.728;2024-02-23T01:35:42;7.40;99.90
70368;DHT22;57789;53.868;10.728;2024-02-23T01:38:08;7.30;99.90
70368;DHT22;57789;53.868;10.728;2024-02-23T01:40:34;7.10;99.90
70368;DHT22;57789;53.868;10.728;2024-02-23T01:43:02;7.10;99.90
70368;DHT22;57789;53.868;10.728;2024-02-23T01:45:28;7.10;99.90
70368;DHT22;57789;53.868;10.728;2024-02-23T01:47:54;7.20;99.90
70368;DHT22;57789;53.868;10.728;2024-02-23T01:50:20;7.20;99.90
70368;DHT22;57789;53.868;10.728;2024-02-23T01:52:46;7.20;99.90
70368;DHT22;57789;53.868;10.728;2024-02-23T01:55:12;7.20;99.90
70368;DHT22;57789;53.868;10.728;2024-02-23T01:57:37;7.20;99.90
70368;DHT22;57789;53.868;10.728;2024-02-23T02:00:06;7.10;99.90
70368;DHT22;57789;53.868;10.728;2024-02-23T02:02:32;7.10;99.90
70368;DHT22;57789;53.868;10.728;2024-02-23T02:04:58;7.10;99.90
70368;DHT22;57789;53.868;10.728;2024-02-23T02:07:24;7.10;99.90
70368;DHT22;57789;53.868;10.728;2024-02-23T02:09:50;7.10;99.90
70368;DHT22;57789;53.868;10.728;2024-02-23T02:12:26;7.20;99.90
70368;DHT22;57789;53.868;10.728;2024-02-23T02:14:52;7.10;99.90
70368;DHT22;57789;53.868;10.728;2024-02-23T02:17:18;7.10;99.90
70368;DHT22;57789;53.868;10.728;2024-02-23T02:19:50;7.10;99.90
70368;DHT22;57789;53.868;10.728;2024-02-23T02:22:17;7.20;99.90
70368;DHT22;57789;53.868;10.728;2024-02-23T02:24:42;7.20;99.90
70368;DHT22;57789;53.868;10.728;2024-02-23T02:27:09;7.20;99.90
70368;DHT22;57789;53.868;10.728;2024-02-23T02:29:35;7.20;99.90
70368;DHT22;57789;53.868;10.728;2024-02-23T02:32:01;7.20;99.90
70368;DHT22;57789;53.868;10.728;2024-02-23T02:34:28;7.20;99.90
70368;DHT22;57789;53.868;10.728;2024-02-23T02:36:55;7.20;99.90
70368;DHT22;57789;53.868;10.728;2024-02-23T02:39:20;7.20;99.90
70368;DHT22;57789;53.868;10.728;2024-02-23T02:41:48;7.20;99.90
70368;DHT22;57789;53.868;10.728;2024-02-23T02:44:14;7.20;99.90
70368;DHT22;57789;53.868;10.728;2024-02-23T02:46:40;7.20;99.90
70368;DHT22;57789;53.868;10.728;2024-02-23T02:49:06;7.20;99.90
70368;DHT22;57789;53.868;10.728;2024-02-23T02:51:32;7.20;99.90
70368;DHT22;57789;53.868;10.728;2024-02-23T02:53:58;7.10;99.90
70368;DHT22;57789;53.868;10.728;2024-02-23T02:56:24;7.00;99.90
70368;DHT22;57789;53.868;10.728;2024-02-23T02:58:49;6.80;99.90
70368;DHT22;57789;53.868;10.728;2024-02-23T03:01:15;6.70;99.90
70368;DHT22;57789;53.868;10.728;2024-02-23T03:03:41;6.70;99.90
70368;DHT22;57789;53.868;10.728;2024-02-23T03:06:06;6.70;99.90
70368;DHT22;57789;53.868;10.728;2024-02-23T03:08:33;6.60;99.90
70368;DHT22;57789;53.868;10.728;2024-02-23T03:10:59;6.60;99.90
70368;DHT22;57789;53.868;10.728;2024-02-23T03:13:25;6.60;99.90
70368;DHT22;57789;53.868;10.728;2024-02-23T03:15:50;6.60;99.90
70368;DHT22;57789;53.868;10.728;2024-02-23T03:18:16;6.50;99.90
70368;DHT22;57789;53.868;10.728;2024-02-23T03:20:43;6.40;99.90
70368;DHT22;57789;53.868;10.728;2024-02-23T03:23:09;6.40;99.90
70368;DHT22;57789;53.868;10.728;2024-02-23T03:25:35;6.30;99.90
70368;DHT22;57789;53.868;10.728;2024-02-23T03:28:01;6.40;99.90
70368;DHT22;57789;53.868;10.728;2024-02-23T03:30:27;6.30;99.90
70368;DHT22;57789;53.868;10.728;2024-02-23T03:32:52;6.30;99.90
70368;DHT22;57789;53.868;10.728;2024-02-23T03:35:18;6.40;99.90
70368;DHT22;57789;53.868;10.728;2024-02-23T03:37:44;6.30;99.90
70368;DHT22;57789;53.868;10.728;2024-02-23T03:40:10;6.30;99.90
70368;DHT22;57789;53.868;10.728;2024-02-23T03:42:36;6.40;99.90
70368;DHT22;57789;53.868;10.728;2024-02-23T03:45:03;6.40;99.90
70368;DHT22;57789;53.868;10.728;2024-02-23T03:47:29;6.40;99.90
70368;DHT22;57789;53.868;10.728;2024-02-23T03:49:55;6.40;99.90
70368;DHT22;57789;53.868;10.728;2024-02-23T03:52:21;6.40;99.90
70368;DHT22;57789;53.868;10.728;2024-02-23T03:54:46;6.40;99.90
70368;DHT22;57789;53.868;10.728;2024-02-23T03:57:12;6.30;99.90
70368;DHT22;57789;53.868;10.728;2024-02-23T03:59:38;6.30;99.90
70368;DHT22;57789;53.868;10.728;2024-02-23T04:02:04;6.30;99.90
70368;DHT22;57789;53.868;10.728;2024-02-23T04:04:30;6.30;99.90
70368;DHT22;57789;53.868;10.728;2024-02-23T04:06:56;6.30;99.90
70368;DHT22;57789;53.868;10.728;2024-02-23T04:09:21;6.30;99.90
70368;DHT22;57789;53.868;10.728;2024-02-23T04:11:48;6.30;99.90
70368;DHT22;57789;53.868;10.728;2024-02-23T04:14:14;6.30;99.90
70368;DHT22;57789;53.868;10.728;2024-02-23T04:16:40;6.30;99.90
70368;DHT22;57789;53.868;10.728;2024-02-23T04:19:05;6.20;99.90
70368;DHT22;57789;53.868;10.728;2024-02-23T04:21:31;6.20;99.90
70368;DHT22;57789;53.868;10.728;2024-02-23T04:23:57;6.20;99.90
70368;DHT22;57789;53.868;10.728;2024-02-23T04:26:23;6.20;99.90
70368;DHT22;57789;53.868;10.728;2024-02-23T04:28:49;6.20;99.90
70368;DHT22;57789;53.868;10.728;2024-02-23T04:31:14;6.20;99.90
70368;DHT22;57789;53.868;10.728;2024-02-23T04:33:40;6.10;99.90
70368;DHT22;57789;53.868;10.728;2024-02-23T04:36:06;6.10;99.90
70368;DHT22;57789;53.868;10.728;2024-02-23T04:38:32;6.00;99.90
70368;DHT22;57789;53.868;10.728;2024-02-23T04:41:02;6.10;99.90
70368;DHT22;57789;53.868;10.728;2024-02-23T04:43:28;6.00;99.90
70368;DHT22;57789;53.868;10.728;2024-02-23T04:45:54;6.00;99.90
70368;DHT22;57789;53.868;10.728;2024-02-23T04:48:20;6.00;99.90
70368;DHT22;57789;53.868;10.728;2024-02-23T04:50:46;5.90;99.90
70368;DHT22;57789;53.868;10.728;2024-02-23T04:53:11;5.90;99.90
70368;DHT22;57789;53.868;10.728;2024-02-23T04:55:37;6.00;99.90
70368;DHT22;57789;53.868;10.728;2024-02-23T04:58:03;6.00;99.90
70368;DHT22;57789;53.868;10.728;2024-02-23T05:00:29;6.00;99.90
70368;DHT22;57789;53.868;10.728;2024-02-23T05:02:59;6.00;99.90
70368;DHT22;57789;53.868;10.728;2024-02-23T05:05:25;6.00;99.90
70368;DHT22;57789;53.868;10.728;2024-02-23T05:07:51;6.00;99.90
70368;DHT22;57789;53.868;10.728;2024-02-23T05:10:16;6.00;99.90
70368;DHT22;57789;53.868;10.728;2024-02-23T05:12:42;6.00;99.90
70368;DHT22;57789;53.868;10.728;2024-02-23T05:15:09;6.00;99.90
70368;DHT22;57789;53.868;10.728;2024-02-23T05:17:34;6.00;99.90
70368;DHT22;57789;53.868;10.728;2024-02-23T05:20:00;6.00;99.90
70368;DHT22;57789;53.868;10.728;2024-02-23T05:22:26;6.00;99.90
70368;DHT22;57789;53.868;10.728;2024-02-23T05:24:51;6.00;99.90
70368;DHT22;57789;53.868;10.728;2024-02-23T05:27:17;6.00;99.90
70368;DHT22;57789;53.868;10.728;2024-02-23T05:29:43;6.00;99.90
70368;DHT22;57789;53.868;10.728;2024-02-23T05:32:08;6.00;99.90
70368;DHT22;57789;53.868;10.728;2024-02-23T05:34:34;6.00;99.90
70368;DHT22;57789;53.868;10.728;2024-02-23T05:37:01;6.00;99.90
70368;DHT22;57789;53.868;10.728;2024-02-23T05:39:27;6.00;99.90
70368;DHT22;57789;53.868;10.728;2024-02-23T05:41:53;6.00;99.90
70368;DHT22;57789;53.868;10.728;2024-02-23T05:44:18;6.00;99.90
70368;DHT22;57789;53.868;10.728;2024-02-23T05:46:44;6.00;99.90
70368;DHT22;57789;53.868;10.728;2024-02-23T05:49:10;6.00;99.90
70368;DHT22;57789;53.868;10.728;2024-02-23T05:51:36;6.00;99.90
70368;DHT22;57789;53.868;10.728;2024-02-23T05:54:02;5.90;99.90
70368;DHT22;57789;53.868;10.728;2024-02-23T05:56:28;5.90;99.90
70368;DHT22;57789;53.868;10.728;2024-02-23T05:58:53;5.90;99.90
70368;DHT22;57789;53.868;10.728;2024-02-23T06:01:20;5.90;99.90
70368;DHT22;57789;53.868;10.728;2024-02-23T06:03:46;5.90;99.90
70368;DHT22;57789;53.868;10.728;2024-02-23T06:06:11;5.90;99.90
70368;DHT22;57789;53.868;10.728;2024-02-23T06:08:37;5.90;99.90
70368;DHT22;57789;53.868;10.728;2024-02-23T06:11:03;5.90;99.90
70368;DHT22;57789;53.868;10.728;2024-02-23T06:13:30;5.90;99.90
70368;DHT22;57789;53.868;10.728;2024-02-23T06:15:56;5.90;99.90
70368;DHT22;57789;53.868;10.728;2024-02-23T06:18:22;5.90;99.90
70368;DHT22;57789;53.868;10.728;2024-02-23T06:20:51;5.90;99.90
70368;DHT22;57789;53.868;10.728;2024-02-23T06:23:17;5.90;99.90
70368;DHT22;57789;53.868;10.728;2024-02-23T06:25:43;5.90;99.90
70368;DHT22;57789;53.868;10.728;2024-02-23T06:28:09;5.90;99.90
70368;DHT22;57789;53.868;10.728;2024-02-23T06:30:36;5.90;99.90
70368;DHT22;57789;53.868;10.728;2024-02-23T06:33:03;5.80;99.90
70368;DHT22;57789;53.868;10.728;2024-02-23T06:35:30;5.90;99.90
70368;DHT22;57789;53.868;10.728;2024-02-23T06:37:58;5.80;99.90
70368;DHT22;57789;53.868;10.728;2024-02-23T06:40:23;5.80;99.90
70368;DHT22;57789;53.868;10.728;2024-02-23T06:42:49;5.80;99.90
70368;DHT22;57789;53.868;10.728;2024-02-23T06:45:16;5.70;99.90
70368;DHT22;57789;53.868;10.728;2024-02-23T06:47:44;5.70;99.90
70368;DHT22;57789;53.868;10.728;2024-02-23T06:50:11;5.70;99.90
70368;DHT22;57789;53.868;10.728;2024-02-23T06:52:37;5.80;99.90
70368;DHT22;57789;53.868;10.728;2024-02-23T06:55:03;5.80;99.90
70368;DHT22;57789;53.868;10.728;2024-02-23T06:57:29;5.90;99.90
70368;DHT22;57789;53.868;10.728;2024-02-23T06:59:56;5.90;99.90
70368;DHT22;57789;53.868;10.728;2024-02-23T07:02:22;5.90;99.90
70368;DHT22;57789;53.868;10.728;2024-02-23T07:04:48;5.90;99.90
70368;DHT22;57789;53.868;10.728;2024-02-23T07:07:14;5.90;99.90
70368;DHT22;57789;53.868;10.728;2024-02-23T07:09:40;5.90;99.90
70368;DHT22;57789;53.868;10.728;2024-02-23T07:12:06;5.90;99.90
70368;DHT22;57789;53.868;10.728;2024-02-23T07:14:32;6.00;99.90
70368;DHT22;57789;53.868;10.728;2024-02-23T07:16:58;6.00;99.90
70368;DHT22;57789;53.868;10.728;2024-02-23T07:19:24;6.00;99.90
70368;DHT22;57789;53.868;10.728;2024-02-23T07:21:50;6.00;99.90
70368;DHT22;57789;53.868;10.728;2024-02-23T07:24:15;6.00;99.90
70368;DHT22;57789;53.868;10.728;2024-02-23T07:26:42;6.10;99.90
70368;DHT22;57789;53.868;10.728;2024-02-23T07:29:08;6.10;99.90
70368;DHT22;57789;53.868;10.728;2024-02-23T07:31:34;6.10;99.90
70368;DHT22;57789;53.868;10.728;2024-02-23T07:34:00;6.10;99.90
70368;DHT22;57789;53.868;10.728;2024-02-23T07:36:25;6.20;99.90
70368;DHT22;57789;53.868;10.728;2024-02-23T07:38:51;6.20;99.90
70368;DHT22;57789;53.868;10.728;2024-02-23T07:41:17;6.20;99.90
70368;DHT22;57789;53.868;10.728;2024-02-23T07:43:46;6.20;99.90
70368;DHT22;57789;53.868;10.728;2024-02-23T07:46:12;6.10;99.90
70368;DHT22;57789;53.868;10.728;2024-02-23T07:48:38;6.10;99.90
70368;DHT22;57789;53.868;10.728;2024-02-23T07:51:05;6.10;99.90
70368;DHT22;57789;53.868;10.728;2024-02-23T07:53:31;6.10;99.90
70368;DHT22;57789;53.868;10.728;2024-02-23T07:55:59;6.10;99.90
70368;DHT22;57789;53.868;10.728;2024-02-23T07:58:27;6.10;99.90
70368;DHT22;57789;53.868;10.728;2024-02-23T08:00:53;6.20;99.90
70368;DHT22;57789;53.868;10.728;2024-02-23T08:03:19;6.20;99.90
70368;DHT22;57789;53.868;10.728;2024-02-23T08:05:45;6.20;99.90
70368;DHT22;57789;53.868;10.728;2024-02-23T08:08:11;6.20;99.90
70368;DHT22;57789;53.868;10.728;2024-02-23T08:10:36;6.20;99.90
70368;DHT22;57789;53.868;10.728;2024-02-23T08:13:02;6.20;99.90
70368;DHT22;57789;53.868;10.728;2024-02-23T08:15:28;6.30;99.90
70368;DHT22;57789;53.868;10.728;2024-02-23T08:17:54;6.30;99.90
70368;DHT22;57789;53.868;10.728;2024-02-23T08:20:19;6.30;99.90
70368;DHT22;57789;53.868;10.728;2024-02-23T08:22:45;6.40;99.90
70368;DHT22;57789;53.868;10.728;2024-02-23T08:25:11;6.50;99.90
70368;DHT22;57789;53.868;10.728;2024-02-23T08:27:37;6.50;99.90
70368;DHT22;57789;53.868;10.728;2024-02-23T08:30:03;6.60;99.90
70368;DHT22;57789;53.868;10.728;2024-02-23T08:32:29;6.80;99.90
70368;DHT22;57789;53.868;10.728;2024-02-23T08:34:55;6.90;99.90
70368;DHT22;57789;53.868;10.728;2024-02-23T08:37:28;6.90;99.90
70368;DHT22;57789;53.868;10.728;2024-02-23T08:39:54;6.90;99.90
70368;DHT22;57789;53.868;10.728;2024-02-23T08:42:20;6.90;99.90
70368;DHT22;57789;53.868;10.728;2024-02-23T08:44:45;6.90;99.90
70368;DHT22;57789;53.868;10.728;2024-02-23T08:47:11;7.00;99.90
70368;DHT22;57789;53.868;10.728;2024-02-23T08:49:37;7.00;99.90
70368;DHT22;57789;53.868;10.728;2024-02-23T08:52:03;7.10;99.90
70368;DHT22;57789;53.868;10.728;2024-02-23T08:54:29;7.00;99.90
70368;DHT22;57789;53.868;10.728;2024-02-23T08:56:55;7.00;99.90
70368;DHT22;57789;53.868;10.728;2024-02-23T08:59:21;7.00;99.90
70368;DHT22;57789;53.868;10.728;2024-02-23T09:01:47;7.00;99.90
70368;DHT22;57789;53.868;10.728;2024-02-23T09:04:13;7.00;99.90
70368;DHT22;57789;53.868;10.728;2024-02-23T09:06:39;7.00;99.90
70368;DHT22;57789;53.868;10.728;2024-02-23T09:09:05;7.10;99.90
70368;DHT22;57789;53.868;10.728;2024-02-23T09:11:31;7.10;99.90
70368;DHT22;57789;53.868;10.728;2024-02-23T09:13:56;7.00;99.90
70368;DHT22;57789;53.868;10.728;2024-02-23T09:16:22;7.10;99.90
70368;DHT22;57789;53.868;10.728;2024-02-23T09:18:50;7.20;99.90
70368;DHT22;57789;53.868;10.728;2024-02-23T09:21:16;7.20;99.90
70368;DHT22;57789;53.868;10.728;2024-02-23T09:23:42;7.30;99.90
70368;DHT22;57789;53.868;10.728;2024-02-23T09:26:10;7.30;99.90
70368;DHT22;57789;53.868;10.728;2024-02-23T09:28:37;7.40;99.90
70368;DHT22;57789;53.868;10.728;2024-02-23T09:31:03;7.50;99.90
70368;DHT22;57789;53.868;10.728;2024-02-23T09:33:30;7.80;99.90
70368;DHT22;57789;53.868;10.728;2024-02-23T09:35:57;7.90;99.90
70368;DHT22;57789;53.868;10.728;2024-02-23T09:38:22;8.00;99.90
70368;DHT22;57789;53.868;10.728;2024-02-23T09:40:50;7.90;99.90
70368;DHT22;57789;53.868;10.728;2024-02-23T09:43:16;7.90;99.90
70368;DHT22;57789;53.868;10.728;2024-02-23T09:45:43;7.90;99.90
70368;DHT22;57789;53.868;10.728;2024-02-23T09:48:10;7.90;99.90
70368;DHT22;57789;53.868;10.728;2024-02-23T09:50:37;7.90;99.90
70368;DHT22;57789;53.868;10.728;2024-02-23T09:53:04;7.90;99.90
70368;DHT22;57789;53.868;10.728;2024-02-23T09:55:34;8.00;99.90
70368;DHT22;57789;53.868;10.728;2024-02-23T09:58:00;8.20;99.90
70368;DHT22;57789;53.868;10.728;2024-02-23T10:00:27;8.40;99.90
70368;DHT22;57789;53.868;10.728;2024-02-23T10:02:54;8.40;99.90
70368;DHT22;57789;53.868;10.728;2024-02-23T10:05:29;8.40;99.90
70368;DHT22;57789;53.868;10.728;2024-02-23T10:07:56;8.30;99.90
70368;DHT22;57789;53.868;10.728;2024-02-23T10:10:33;8.30;99.90
70368;DHT22;57789;53.868;10.728;2024-02-23T10:13:00;8.40;99.90
70368;DHT22;57789;53.868;10.728;2024-02-23T10:15:28;8.40;99.90
70368;DHT22;57789;53.868;10.728;2024-02-23T10:17:54;8.60;99.90
70368;DHT22;57789;53.868;10.728;2024-02-23T10:20:20;8.60;99.90
70368;DHT22;57789;53.868;10.728;2024-02-23T10:22:46;8.60;99.90
70368;DHT22;57789;53.868;10.728;2024-02-23T10:25:12;8.40;99.90
70368;DHT22;57789;53.868;10.728;2024-02-23T10:27:40;8.40;99.90
70368;DHT22;57789;53.868;10.728;2024-02-23T10:30:06;8.40;99.90
70368;DHT22;57789;53.868;10.728;2024-02-23T10:32:32;8.80;99.90
70368;DHT22;57789;53.868;10.728;2024-02-23T10:35:00;8.60;99.90
70368;DHT22;57789;53.868;10.728;2024-02-23T10:37:30;8.70;99.90
70368;DHT22;57789;53.868;10.728;2024-02-23T10:39:58;9.10;99.90
70368;DHT22;57789;53.868;10.728;2024-02-23T10:42:34;9.30;99.90
70368;DHT22;57789;53.868;10.728;2024-02-23T10:45:01;9.50;99.90
70368;DHT22;57789;53.868;10.728;2024-02-23T10:47:28;9.60;99.90
70368;DHT22;57789;53.868;10.728;2024-02-23T10:49:57;9.40;99.90
70368;DHT22;57789;53.868;10.728;2024-02-23T10:52:26;9.20;99.90
70368;DHT22;57789;53.868;10.728;2024-02-23T10:54:52;8.90;99.90
70368;DHT22;57789;53.868;10.728;2024-02-23T10:57:19;8.90;99.90
70368;DHT22;57789;53.868;10.728;2024-02-23T10:59:47;8.90;99.90
70368;DHT22;57789;53.868;10.728;2024-02-23T11:02:19;8.90;99.90
70368;DHT22;57789;53.868;10.728;2024-02-23T11:04:49;8.90;99.90
70368;DHT22;57789;53.868;10.728;2024-02-23T11:07:18;8.90;99.90
70368;DHT22;57789;53.868;10.728;2024-02-23T11:09:51;9.20;99.90
70368;DHT22;57789;53.868;10.728;2024-02-23T11:12:29;9.50;99.90
70368;DHT22;57789;53.868;10.728;2024-02-23T11:15:00;9.60;99.90
70368;DHT22;57789;53.868;10.728;2024-02-23T11:17:30;9.60;99.90
70368;DHT22;57789;53.868;10.728;2024-02-23T11:19:57;9.50;99.90
70368;DHT22;57789;53.868;10.728;2024-02-23T11:22:32;9.50;99.90
70368;DHT22;57789;53.868;10.728;2024-02-23T11:25:07;9.50;99.90
70368;DHT22;57789;53.868;10.728;2024-02-23T11:27:38;9.30;99.90
70368;DHT22;57789;53.868;10.728;2024-02-23T11:30:09;9.20;99.90
70368;DHT22;57789;53.868;10.728;2024-02-23T11:32:45;9.10;99.90
70368;DHT22;57789;53.868;10.728;2024-02-23T11:35:15;9.30;99.90
70368;DHT22;57789;53.868;10.728;2024-02-23T11:37:48;9.40;99.90
70368;DHT22;57789;53.868;10.728;2024-02-23T11:40:14;9.70;99.90
70368;DHT22;57789;53.868;10.728;2024-02-23T11:42:43;9.60;99.90
70368;DHT22;57789;53.868;10.728;2024-02-23T11:45:10;9.60;99.90
70368;DHT22;57789;53.868;10.728;2024-02-23T11:47:39;10.00;99.90
70368;DHT22;57789;53.868;10.728;2024-02-23T11:50:11;10.10;99.90
70368;DHT22;57789;53.868;10.728;2024-02-23T11:52:37;10.30;99.90
70368;DHT22;57789;53.868;10.728;2024-02-23T11:55:04;10.30;99.90
70368;DHT22;57789;53.868;10.728;2024-02-23T11:57:32;10.10;99.90
70368;DHT22;57789;53.868;10.728;2024-02-23T11:59:58;9.90;99.90
70368;DHT22;57789;53.868;10.728;2024-02-23T12:02:26;9.70;99.90
70368;DHT22;57789;53.868;10.728;2024-02-23T12:04:52;9.60;99.90
70368;DHT22;57789;53.868;10.728;2024-02-23T12:07:18;9.70;99.90
70368;DHT22;57789;53.868;10.728;2024-02-23T12:09:46;9.70;99.90
70368;DHT22;57789;53.868;10.728;2024-02-23T12:12:12;9.70;99.90
70368;DHT22;57789;53.868;10.728;2024-02-23T12:14:39;9.80;99.90
70368;DHT22;57789;53.868;10.728;2024-02-23T12:17:04;9.60;99.90
70368;DHT22;57789;53.868;10.728;2024-02-23T12:19:32;9.80;99.90
70368;DHT22;57789;53.868;10.728;2024-02-23T12:22:01;9.80;99.90
70368;DHT22;57789;53.868;10.728;2024-02-23T12:24:27;9.80;99.90
70368;DHT22;57789;53.868;10.728;2024-02-23T12:26:55;9.80;99.90
70368;DHT22;57789;53.868;10.728;2024-02-23T12:29:21;9.70;99.90
70368;DHT22;57789;53.868;10.728;2024-02-23T12:31:47;9.70;99.90
70368;DHT22;57789;53.868;10.728;2024-02-23T12:34:13;9.70;99.90
70368;DHT22;57789;53.868;10.728;2024-02-23T12:36:39;9.70;99.90
70368;DHT22;57789;53.868;10.728;2024-02-23T12:39:05;9.70;99.90
70368;DHT22;57789;53.868;10.728;2024-02-23T12:41:32;9.60;99.90
70368;DHT22;57789;53.868;10.728;2024-02-23T12:43:59;9.60;99.90
70368;DHT22;57789;53.868;10.728;2024-02-23T12:46:25;9.60;99.90
70368;DHT22;57789;53.868;10.728;2024-02-23T12:48:51;9.70;99.90
70368;DHT22;57789;53.868;10.728;2024-02-23T12:51:18;9.80;99.90
70368;DHT22;57789;53.868;10.728;2024-02-23T12:53:44;9.80;99.90
70368;DHT22;57789;53.868;10.728;2024-02-23T12:56:11;9.70;99.90
70368;DHT22;57789;53.868;10.728;2024-02-23T12:58:42;9.60;99.90
70368;DHT22;57789;53.868;10.728;2024-02-23T13:01:08;9.50;99.90
70368;DHT22;57789;53.868;10.728;2024-02-23T13:03:36;9.50;99.90
70368;DHT22;57789;53.868;10.728;2024-02-23T13:06:03;9.60;99.90
70368;DHT22;57789;53.868;10.728;2024-02-23T13:08:29;9.70;99.90
70368;DHT22;57789;53.868;10.728;2024-02-23T13:10:57;9.80;99.90
70368;DHT22;57789;53.868;10.728;2024-02-23T13:13:24;9.80;99.90
70368;DHT22;57789;53.868;10.728;2024-02-23T13:15:51;9.70;99.90
70368;DHT22;57789;53.868;10.728;2024-02-23T13:18:19;9.70;99.90
70368;DHT22;57789;53.868;10.728;2024-02-23T13:20:45;9.70;99.90
70368;DHT22;57789;53.868;10.728;2024-02-23T13:23:12;9.70;99.90
70368;DHT22;57789;53.868;10.728;2024-02-23T13:25:42;9.70;99.90
70368;DHT22;57789;53.868;10.728;2024-02-23T13:28:08;9.70;99.90
70368;DHT22;57789;53.868;10.728;2024-02-23T13:30:36;9.70;99.90
70368;DHT22;57789;53.868;10.728;2024-02-23T13:33:02;9.70;99.90
70368;DHT22;57789;53.868;10.728;2024-02-23T13:35:28;9.50;99.90
70368;DHT22;57789;53.868;10.728;2024-02-23T13:37:54;9.40;99.90
70368;DHT22;57789;53.868;10.728;2024-02-23T13:40:20;9.40;99.90
70368;DHT22;57789;53.868;10.728;2024-02-23T13:42:45;9.50;99.90
70368;DHT22;57789;53.868;10.728;2024-02-23T13:45:15;9.50;99.90
70368;DHT22;57789;53.868;10.728;2024-02-23T13:47:42;9.40;99.90
70368;DHT22;57789;53.868;10.728;2024-02-23T13:50:10;9.40;99.90
70368;DHT22;57789;53.868;10.728;2024-02-23T13:52:36;9.30;99.90
70368;DHT22;57789;53.868;10.728;2024-02-23T13:55:02;9.30;99.90
70368;DHT22;57789;53.868;10.728;2024-02-23T13:57:29;9.10;99.90
70368;DHT22;57789;53.868;10.728;2024-02-23T13:59:54;9.20;99.90
70368;DHT22;57789;53.868;10.728;2024-02-23T14:02:26;9.20;99.90
70368;DHT22;57789;53.868;10.728;2024-02-23T14:04:52;9.10;99.90
70368;DHT22;57789;53.868;10.728;2024-02-23T14:07:19;9.00;99.90
70368;DHT22;57789;53.868;10.728;2024-02-23T14:09:45;9.00;99.90
70368;DHT22;57789;53.868;10.728;2024-02-23T14:12:11;9.00;99.90
70368;DHT22;57789;53.868;10.728;2024-02-23T14:14:37;9.00;99.90
70368;DHT22;57789;53.868;10.728;2024-02-23T14:17:03;9.10;99.90
70368;DHT22;57789;53.868;10.728;2024-02-23T14:19:29;9.10;99.90
70368;DHT22;57789;53.868;10.728;2024-02-23T14:21:55;9.10;99.90
70368;DHT22;57789;53.868;10.728;2024-02-23T14:24:21;9.10;99.90
70368;DHT22;57789;53.868;10.728;2024-02-23T14:26:47;9.10;99.90
70368;DHT22;57789;53.868;10.728;2024-02-23T14:29:12;9.00;99.90
70368;DHT22;57789;53.868;10.728;2024-02-23T14:31:38;9.00;99.90
70368;DHT22;57789;53.868;10.728;2024-02-23T14:34:04;9.10;99.90
70368;DHT22;57789;53.868;10.728;2024-02-23T14:36:31;9.10;99.90
70368;DHT22;57789;53.868;10.728;2024-02-23T14:39:00;9.10;99.90
70368;DHT22;57789;53.868;10.728;2024-02-23T14:41:26;9.10;99.90
70368;DHT22;57789;53.868;10.728;2024-02-23T14:43:51;9.00;99.90
70368;DHT22;57789;53.868;10.728;2024-02-23T14:46:19;9.00;99.90
70368;DHT22;57789;53.868;10.728;2024-02-23T14:48:44;9.00;99.90
70368;DHT22;57789;53.868;10.728;2024-02-23T14:51:14;8.80;99.90
70368;DHT22;57789;53.868;10.728;2024-02-23T14:53:41;8.90;99.90
70368;DHT22;57789;53.868;10.728;2024-02-23T14:56:07;8.90;99.90
70368;DHT22;57789;53.868;10.728;2024-02-23T14:58:33;8.80;99.90
70368;DHT22;57789;53.868;10.728;2024-02-23T15:00:59;8.80;99.90
70368;DHT22;57789;53.868;10.728;2024-02-23T15:03:25;8.90;99.90
70368;DHT22;57789;53.868;10.728;2024-02-23T15:05:51;8.80;99.90
70368;DHT22;57789;53.868;10.728;2024-02-23T15:08:17;8.80;99.90
70368;DHT22;57789;53.868;10.728;2024-02-23T15:10:43;8.90;99.90
70368;DHT22;57789;53.868;10.728;2024-02-23T15:13:09;8.90;99.90
70368;DHT22;57789;53.868;10.728;2024-02-23T15:15:35;8.90;99.90
70368;DHT22;57789;53.868;10.728;2024-02-23T15:18:04;9.00;99.90
70368;DHT22;57789;53.868;10.728;2024-02-23T15:20:31;9.20;99.90
70368;DHT22;57789;53.868;10.728;2024-02-23T15:22:57;9.30;99.90
70368;DHT22;57789;53.868;10.728;2024-02-23T15:25:23;9.30;99.90